createdAt,value
2023-02-11T00:01:53.807Z,7.57
2023-02-11T00:04:22.382Z,7.83
2023-02-11T00:06:51.096Z,7.00
2023-02-11T00:09:20.881Z,7.80
2023-02-11T00:11:49.396Z,6.97
2023-02-11T00:14:18.189Z,7.27
2023-02-11T00:16:46.589Z,7.23
2023-02-11T00:19:15.113Z,7.40
2023-02-11T00:21:43.587Z,7.03
2023-02-11T00:24:11.976Z,7.47
2023-02-11T00:26:42.262Z,7.43
2023-02-11T00:29:12.339Z,7.10
2023-02-11T00:31:42.607Z,7.57
2023-02-11T00:34:11.027Z,6.83
2023-02-11T00:36:40.830Z,6.90
2023-02-11T00:39:09.981Z,6.70
2023-02-11T00:41:38.805Z,7.67
2023-02-11T00:44:08.933Z,6.83
2023-02-11T00:46:37.426Z,7.27
2023-02-11T00:49:05.904Z,6.63
2023-02-11T00:51:35.309Z,6.80
2023-02-11T00:54:05.591Z,7.13
2023-02-11T00:56:35.264Z,6.23
2023-02-11T00:59:03.738Z,6.00
2023-02-11T01:01:34.640Z,6.70
2023-02-11T01:04:03.490Z,6.43
2023-02-11T01:06:32.242Z,6.53
2023-02-11T01:09:01.214Z,6.50
2023-02-11T01:11:29.704Z,7.40
2023-02-11T01:13:58.404Z,6.33
2023-02-11T01:16:27.013Z,7.37
2023-02-11T01:18:58.833Z,6.33
2023-02-11T01:21:27.638Z,6.93
2023-02-11T01:23:56.026Z,6.73
2023-02-11T01:26:24.587Z,7.40
2023-02-11T01:28:53.434Z,7.03
2023-02-11T01:31:21.882Z,6.73
2023-02-11T01:33:50.525Z,6.57
2023-02-11T01:36:20.899Z,5.97
2023-02-11T01:38:50.015Z,6.57
2023-02-11T01:41:21.959Z,5.87
2023-02-11T01:43:51.832Z,6.97
2023-02-11T01:46:34.245Z,6.80
2023-02-11T01:49:09.044Z,6.13
2023-02-11T01:51:43.261Z,6.37
2023-02-11T01:54:33.848Z,6.50
2023-02-11T01:57:25.081Z,5.77
2023-02-11T02:00:07.305Z,6.10
2023-02-11T02:02:52.254Z,6.13
2023-02-11T02:05:30.336Z,6.50
2023-02-11T02:08:07.868Z,6.27
2023-02-11T02:10:39.609Z,5.80
2023-02-11T02:13:08.077Z,5.70
2023-02-11T02:15:40.104Z,6.23
2023-02-11T02:18:27.470Z,6.40
2023-02-11T02:21:46.383Z,5.87
2023-02-11T02:25:01.170Z,5.73
2023-02-11T02:27:43.804Z,5.93
2023-02-11T02:31:00.790Z,5.97
2023-02-11T02:33:39.647Z,5.73
2023-02-11T02:36:16.413Z,5.50
2023-02-11T02:38:52.816Z,6.03
2023-02-11T02:41:25.443Z,6.43
2023-02-11T02:43:54.765Z,6.20
2023-02-11T02:46:28.847Z,6.00
2023-02-11T02:48:59.785Z,6.80
2023-02-11T02:52:16.646Z,6.33
2023-02-11T02:55:33.239Z,6.73
2023-02-11T02:58:36.937Z,6.00
2023-02-11T03:01:12.925Z,6.40
2023-02-11T03:03:51.014Z,6.70
2023-02-11T03:06:31.959Z,6.53
2023-02-11T03:09:06.420Z,7.20
2023-02-11T03:11:37.652Z,5.73
2023-02-11T03:14:13.774Z,6.40
2023-02-11T03:16:43.306Z,6.37
2023-02-11T03:19:17.258Z,6.57
2023-02-11T03:21:48.582Z,6.00
2023-02-11T03:24:22.650Z,6.40
2023-02-11T03:26:54.455Z,6.37
2023-02-11T03:29:34.138Z,6.53
2023-02-11T03:32:10.071Z,6.10
2023-02-11T03:34:45.532Z,6.23
2023-02-11T03:37:21.334Z,6.23
2023-02-11T03:39:55.967Z,6.20
2023-02-11T03:42:29.219Z,5.53
2023-02-11T03:45:05.109Z,6.10
2023-02-11T03:47:37.220Z,6.20
2023-02-11T03:50:09.658Z,5.77
2023-02-11T03:52:40.539Z,5.70
2023-02-11T03:55:13.663Z,6.10
2023-02-11T03:57:42.195Z,5.43
2023-02-11T04:00:13.380Z,5.47
2023-02-11T04:02:43.029Z,6.27
2023-02-11T04:05:14.507Z,6.47
2023-02-11T04:07:44.596Z,5.67
2023-02-11T04:10:13.677Z,6.00
2023-02-11T04:12:42.058Z,5.70
2023-02-11T04:15:11.319Z,5.80
2023-02-11T04:17:40.172Z,5.77
2023-02-11T04:20:09.954Z,6.17
2023-02-11T04:22:38.665Z,5.80
2023-02-11T04:25:11.116Z,6.70
2023-02-11T04:27:39.728Z,6.17
2023-02-11T04:30:09.697Z,5.97
2023-02-11T04:32:38.098Z,5.97
2023-02-11T04:35:08.140Z,6.20
2023-02-11T04:37:36.780Z,6.37
2023-02-11T04:40:06.143Z,5.97
2023-02-11T04:42:36.584Z,6.60
2023-02-11T04:45:06.261Z,6.57
2023-02-11T04:47:34.664Z,5.70
2023-02-11T04:50:03.136Z,5.63
2023-02-11T04:52:31.642Z,5.87
2023-02-11T04:55:00.162Z,6.83
2023-02-11T04:57:28.526Z,5.77
2023-02-11T04:59:58.836Z,6.33
2023-02-11T05:02:27.477Z,5.87
2023-02-11T05:04:56.174Z,6.10
2023-02-11T05:07:24.923Z,5.90
2023-02-11T05:09:53.352Z,5.93
2023-02-11T05:12:21.947Z,5.90
2023-02-11T05:14:50.635Z,6.13
2023-02-11T05:17:20.655Z,6.27
2023-02-11T05:19:49.181Z,6.43
2023-02-11T05:22:17.556Z,5.50
2023-02-11T05:24:45.937Z,6.40
2023-02-11T05:27:14.769Z,5.97
2023-02-11T05:29:43.239Z,5.87
2023-02-11T05:32:12.198Z,6.30
2023-02-11T05:34:41.964Z,5.90
2023-02-11T05:37:10.451Z,5.90
2023-02-11T05:39:39.376Z,6.00
2023-02-11T05:42:08.093Z,6.20
2023-02-11T05:44:36.475Z,6.33
2023-02-11T05:47:05.395Z,6.13
2023-02-11T05:49:33.998Z,6.17
2023-02-11T05:52:04.245Z,5.63
2023-02-11T05:54:32.608Z,5.47
2023-02-11T05:57:01.073Z,5.97
2023-02-11T05:59:30.256Z,6.60
2023-02-11T06:01:58.983Z,6.27
2023-02-11T06:04:27.525Z,6.27
2023-02-11T06:06:55.974Z,6.10
2023-02-11T06:09:26.254Z,5.37
2023-02-11T06:11:55.281Z,6.03
2023-02-11T06:14:24.060Z,6.30
2023-02-11T06:16:52.474Z,6.77
2023-02-11T06:19:21.076Z,7.03
2023-02-11T06:21:49.529Z,6.77
2023-02-11T06:24:38.293Z,6.20
2023-02-11T06:27:08.832Z,6.43
2023-02-11T06:29:37.692Z,6.00
2023-02-11T06:32:06.508Z,5.80
2023-02-11T06:34:35.061Z,6.37
2023-02-11T06:37:03.676Z,6.03
2023-02-11T06:39:32.106Z,6.57
2023-02-11T06:42:01.036Z,6.10
2023-02-11T06:44:31.317Z,5.93
2023-02-11T06:46:59.776Z,6.57
2023-02-11T06:49:28.340Z,6.30
2023-02-11T06:51:57.235Z,6.73
2023-02-11T06:54:25.833Z,6.27
2023-02-11T06:56:54.283Z,6.27
2023-02-11T06:59:22.699Z,6.30
2023-02-11T07:01:52.599Z,6.97
2023-02-11T07:04:22.693Z,6.13
2023-02-11T07:06:51.140Z,7.30
2023-02-11T07:09:19.890Z,7.27
2023-02-11T07:11:48.279Z,7.53
2023-02-11T07:14:17.045Z,6.80
2023-02-11T07:16:45.509Z,6.70
2023-02-11T07:19:15.334Z,6.57
2023-02-11T07:21:44.083Z,7.20
2023-02-11T07:24:12.644Z,7.30
2023-02-11T07:26:41.320Z,7.53
2023-02-11T07:29:09.700Z,7.47
2023-02-11T07:31:38.103Z,6.87
2023-02-11T07:34:07.198Z,7.00
2023-02-11T07:36:36.965Z,7.47
2023-02-11T07:39:05.515Z,7.90
2023-02-11T07:41:37.736Z,7.90
2023-02-11T07:44:07.075Z,7.63
2023-02-11T07:46:35.902Z,8.03
2023-02-11T07:49:04.969Z,7.67
2023-02-11T07:51:33.407Z,8.37
2023-02-11T07:54:03.559Z,8.20
2023-02-11T07:56:32.284Z,8.27
2023-02-11T07:59:04.552Z,9.10
2023-02-11T08:01:33.854Z,8.43
2023-02-11T08:04:04.516Z,8.43
2023-02-11T08:06:35.911Z,8.00
2023-02-11T08:09:12.192Z,8.27
2023-02-11T08:11:40.607Z,8.27
2023-02-11T08:14:09.896Z,9.17
2023-02-11T08:16:40.040Z,7.90
2023-02-11T08:19:12.528Z,8.43
2023-02-11T08:21:41.602Z,8.67
2023-02-11T08:24:11.601Z,8.47
2023-02-11T08:26:41.427Z,9.90
2023-02-11T08:29:14.117Z,8.60
2023-02-11T08:31:46.117Z,8.50
2023-02-11T08:34:18.277Z,8.87
2023-02-11T08:36:48.875Z,8.80
2023-02-11T08:39:22.631Z,9.37
2023-02-11T08:41:53.495Z,8.30
2023-02-11T08:44:23.398Z,8.20
2023-02-11T08:46:52.974Z,9.43
2023-02-11T08:49:22.148Z,9.07
2023-02-11T08:51:51.466Z,7.57
2023-02-11T08:54:21.453Z,8.40
2023-02-11T08:56:52.986Z,8.90
2023-02-11T08:59:21.432Z,9.23
2023-02-11T09:01:50.697Z,9.50
2023-02-11T09:04:19.533Z,9.43
2023-02-11T09:06:48.147Z,9.50
2023-02-11T09:09:18.266Z,8.83
2023-02-11T09:11:48.254Z,8.87
2023-02-11T09:14:21.028Z,8.87
2023-02-11T09:16:50.622Z,7.33
2023-02-11T09:19:19.615Z,9.23
2023-02-11T09:21:48.244Z,8.30
2023-02-11T09:24:16.857Z,9.37
2023-02-11T09:26:47.036Z,9.13
2023-02-11T09:29:15.413Z,9.00
2023-02-11T09:31:44.132Z,9.30
2023-02-11T09:34:13.611Z,10.07
2023-02-11T09:36:42.739Z,9.60
2023-02-11T09:39:15.204Z,10.17
2023-02-11T09:42:25.980Z,9.10
2023-02-11T09:44:56.294Z,9.27
2023-02-11T09:47:30.383Z,10.30
2023-02-11T09:50:03.456Z,11.00
2023-02-11T09:52:40.338Z,10.23
2023-02-11T09:55:20.578Z,9.90
2023-02-11T09:57:49.529Z,9.93
2023-02-11T10:00:24.143Z,9.30
2023-02-11T10:03:32.371Z,10.53
2023-02-11T10:06:22.540Z,9.53
2023-02-11T10:09:04.568Z,9.60
2023-02-11T10:11:43.284Z,8.83
2023-02-11T10:14:32.621Z,9.57
2023-02-11T10:17:15.755Z,9.10
2023-02-11T10:20:01.437Z,9.60
2023-02-11T10:22:35.313Z,8.10
2023-02-11T10:25:18.962Z,9.20
2023-02-11T10:27:47.740Z,10.60
2023-02-11T10:30:26.341Z,9.70
2023-02-11T10:33:03.486Z,10.97
2023-02-11T10:35:33.663Z,10.60
2023-02-11T10:38:02.294Z,10.33
2023-02-11T10:40:33.777Z,10.70
2023-02-11T10:43:05.851Z,10.07
2023-02-11T10:45:37.780Z,10.47
2023-02-11T10:48:42.405Z,9.97
2023-02-11T10:51:21.009Z,10.33
2023-02-11T10:53:51.921Z,10.50
2023-02-11T10:56:28.339Z,10.40
2023-02-11T10:59:01.827Z,10.00
2023-02-11T11:01:42.700Z,10.00
2023-02-11T11:04:44.989Z,9.33
2023-02-11T11:07:22.081Z,8.50
2023-02-11T11:09:55.556Z,8.80
2023-02-11T11:12:35.795Z,9.33
2023-02-11T11:15:19.936Z,9.77
2023-02-11T11:17:48.917Z,10.40
2023-02-11T11:20:28.419Z,9.77
2023-02-11T11:23:15.370Z,10.53
2023-02-11T11:25:47.064Z,11.27
2023-02-11T11:28:25.525Z,10.57
2023-02-11T11:30:57.139Z,11.00
2023-02-11T11:33:30.086Z,10.93
2023-02-11T11:36:04.935Z,10.40
2023-02-11T11:38:36.038Z,10.20
2023-02-11T11:41:21.042Z,10.20
2023-02-11T11:44:14.360Z,10.57
2023-02-11T11:46:45.724Z,10.27
2023-02-11T11:49:23.805Z,11.83
2023-02-11T11:52:13.332Z,10.83
2023-02-11T11:54:43.889Z,10.83
2023-02-11T11:57:17.390Z,10.70
2023-02-11T11:59:46.303Z,11.27
2023-02-11T12:02:54.977Z,9.80
2023-02-11T12:05:29.657Z,11.03
2023-02-11T12:08:12.599Z,10.93
2023-02-11T12:11:03.251Z,10.03
2023-02-11T12:13:45.115Z,9.73
2023-02-11T12:16:26.470Z,10.53
2023-02-11T12:19:30.060Z,10.43
2023-02-11T12:22:11.317Z,9.60
2023-02-11T12:25:01.946Z,10.00
2023-02-11T12:27:45.792Z,11.23
2023-02-11T12:30:30.300Z,11.97
2023-02-11T12:33:10.904Z,11.80
2023-02-11T12:35:49.413Z,10.97
2023-02-11T12:38:40.701Z,11.17
2023-02-11T12:42:04.537Z,11.33
2023-02-11T12:44:46.674Z,11.40
2023-02-11T12:47:27.116Z,11.33
2023-02-11T12:50:11.442Z,11.80
2023-02-11T12:53:06.911Z,12.10
2023-02-11T12:55:40.604Z,12.83
2023-02-11T12:58:15.820Z,12.70
2023-02-11T13:00:51.072Z,12.00
2023-02-11T13:03:26.485Z,12.13
2023-02-11T13:05:58.548Z,12.60
2023-02-11T13:08:32.036Z,12.43
2023-02-11T13:11:03.597Z,12.23
2023-02-11T13:13:38.538Z,12.50
2023-02-11T13:16:11.586Z,11.10
2023-02-11T13:18:52.560Z,14.30
2023-02-11T13:21:39.795Z,13.40
2023-02-11T13:24:27.014Z,11.90
2023-02-11T13:27:05.956Z,13.20
2023-02-11T13:30:05.233Z,13.60
2023-02-11T13:33:06.823Z,12.73
2023-02-11T13:35:38.054Z,12.30
2023-02-11T13:38:19.045Z,12.70
2023-02-11T13:40:59.622Z,13.07
2023-02-11T13:43:29.700Z,13.33
2023-02-11T13:46:03.486Z,13.57
2023-02-11T13:48:35.860Z,14.27
2023-02-11T13:51:07.618Z,14.43
2023-02-11T13:53:48.651Z,14.70
2023-02-11T13:56:30.572Z,13.90
2023-02-11T13:59:02.259Z,12.00
2023-02-11T14:02:20.194Z,13.50
2023-02-11T14:05:31.075Z,12.80
2023-02-11T14:08:41.030Z,12.27
2023-02-11T14:11:47.879Z,12.30
2023-02-11T14:14:25.687Z,11.93
2023-02-11T14:17:27.694Z,12.23
2023-02-11T14:19:56.356Z,11.73
2023-02-11T14:22:29.582Z,12.30
2023-02-11T14:25:00.892Z,12.37
2023-02-11T14:27:44.228Z,12.67
2023-02-11T14:30:33.682Z,12.40
2023-02-11T14:33:49.789Z,12.77
2023-02-11T14:36:48.945Z,12.27
2023-02-11T14:39:33.418Z,11.77
2023-02-11T14:42:03.977Z,11.83
2023-02-11T14:44:35.233Z,11.27
2023-02-11T14:47:04.363Z,10.67
2023-02-11T14:49:37.823Z,12.00
2023-02-11T14:52:18.866Z,12.17
2023-02-11T14:54:50.391Z,10.00
2023-02-11T14:57:21.233Z,11.83
2023-02-11T15:00:02.286Z,12.67
2023-02-11T15:02:35.461Z,11.80
2023-02-11T15:05:26.112Z,12.87
2023-02-11T15:07:59.357Z,11.73
2023-02-11T15:10:33.429Z,12.37
2023-02-11T15:13:03.668Z,11.37
2023-02-11T15:15:35.866Z,12.37
2023-02-11T15:18:05.951Z,11.73
2023-02-11T15:20:36.972Z,11.40
2023-02-11T15:23:12.494Z,12.10
2023-02-11T15:25:45.956Z,11.30
2023-02-11T15:28:28.863Z,12.13
2023-02-11T15:31:03.772Z,12.27
2023-02-11T15:33:33.502Z,11.73
2023-02-11T15:36:04.406Z,11.70
2023-02-11T15:38:33.160Z,12.10
2023-02-11T15:41:04.444Z,10.37
2023-02-11T15:43:43.997Z,11.67
2023-02-11T15:46:15.866Z,10.60
2023-02-11T15:48:46.844Z,10.80
2023-02-11T15:51:32.948Z,11.67
2023-02-11T15:54:04.437Z,10.53
2023-02-11T15:56:43.050Z,10.40
2023-02-11T15:59:19.694Z,10.20
2023-02-11T16:01:49.353Z,9.50
2023-02-11T16:04:20.622Z,10.23
2023-02-11T16:06:51.903Z,10.80
2023-02-11T16:09:33.724Z,9.97
2023-02-11T16:12:04.689Z,9.67
2023-02-11T16:14:39.134Z,9.97
2023-02-11T16:17:11.591Z,9.60
2023-02-11T16:19:46.353Z,10.27
2023-02-11T16:22:20.941Z,9.17
2023-02-11T16:24:51.048Z,9.57
2023-02-11T16:27:24.731Z,9.40
2023-02-11T16:29:53.701Z,9.90
2023-02-11T16:32:26.031Z,9.33
2023-02-11T16:34:57.864Z,9.20
2023-02-11T16:37:28.339Z,10.23
2023-02-11T16:39:58.212Z,10.70
2023-02-11T16:42:27.042Z,10.80
2023-02-11T16:44:55.505Z,10.63
2023-02-11T16:47:27.507Z,10.13
2023-02-11T16:49:57.515Z,9.93
2023-02-11T16:52:27.915Z,9.40
2023-02-11T16:54:56.460Z,10.40
2023-02-11T16:57:30.002Z,9.97
2023-02-11T16:59:59.409Z,10.50
2023-02-11T17:02:32.800Z,11.47
2023-02-11T17:05:04.179Z,11.20
2023-02-11T17:07:34.697Z,11.20
2023-02-11T17:10:03.312Z,11.00
2023-02-11T17:12:31.823Z,9.37
2023-02-11T17:15:00.379Z,9.20
2023-02-11T17:17:30.063Z,10.47
2023-02-11T17:19:58.501Z,9.40
2023-02-11T17:22:27.376Z,9.53
2023-02-11T17:24:58.650Z,9.30
2023-02-11T17:27:27.084Z,9.23
2023-02-11T17:29:55.780Z,9.13
2023-02-11T17:32:24.366Z,9.87
2023-02-11T17:34:54.452Z,10.97
2023-02-11T17:37:22.931Z,11.03
2023-02-11T17:39:51.728Z,11.53
2023-02-11T17:42:21.972Z,12.20
2023-02-11T17:44:50.390Z,11.87
2023-02-11T17:47:18.808Z,10.47
2023-02-11T17:49:47.166Z,10.07
2023-02-11T17:52:16.684Z,10.27
2023-02-11T17:54:45.909Z,10.60
2023-02-11T17:57:14.818Z,10.20
2023-02-11T17:59:44.964Z,11.03
2023-02-11T18:02:13.995Z,10.57
2023-02-11T18:04:42.625Z,10.37
2023-02-11T18:07:11.558Z,10.43
2023-02-11T18:09:41.559Z,10.53
2023-02-11T18:12:10.820Z,10.13
2023-02-11T18:14:41.222Z,10.03
2023-02-11T18:17:11.578Z,9.47
2023-02-11T18:19:40.033Z,10.57
2023-02-11T18:22:09.651Z,9.77
2023-02-11T18:24:38.114Z,10.10
2023-02-11T18:27:06.566Z,10.67
2023-02-11T18:29:35.574Z,10.13
2023-02-11T18:32:04.095Z,11.47
2023-02-11T18:34:34.016Z,10.27
2023-02-11T18:37:02.452Z,9.73
2023-02-11T18:39:30.858Z,10.73
2023-02-11T18:41:59.822Z,9.80
2023-02-11T18:44:28.801Z,9.27
2023-02-11T18:46:57.243Z,10.33
2023-02-11T18:49:25.650Z,11.17
2023-02-11T18:51:58.271Z,10.93
2023-02-11T18:54:26.930Z,11.60
2023-02-11T18:56:55.394Z,11.73
2023-02-11T18:59:23.828Z,11.60
2023-02-11T19:01:52.393Z,11.07
2023-02-11T19:04:20.832Z,12.03
2023-02-11T19:06:50.531Z,11.83
2023-02-11T19:09:21.750Z,12.93
2023-02-11T19:11:50.903Z,10.23
2023-02-11T19:14:23.297Z,12.30
2023-02-11T19:16:54.992Z,13.60
2023-02-11T19:19:26.935Z,12.83
2023-02-11T19:21:56.237Z,12.87
2023-02-11T19:24:27.651Z,12.47
2023-02-11T19:27:00.856Z,12.13
2023-02-11T19:29:32.081Z,14.33
2023-02-11T19:32:00.579Z,13.23
2023-02-11T19:34:29.458Z,13.23
2023-02-11T19:36:59.524Z,12.87
2023-02-11T19:39:29.383Z,13.07
2023-02-11T19:41:57.864Z,12.27
2023-02-11T19:44:26.283Z,13.23
2023-02-11T19:46:54.812Z,14.47
2023-02-11T19:49:25.841Z,12.53
2023-02-11T19:51:57.415Z,12.50
2023-02-11T19:54:29.052Z,13.97
2023-02-11T19:56:58.620Z,14.13
2023-02-11T19:59:27.586Z,12.80
2023-02-11T20:01:55.979Z,14.40
2023-02-11T20:04:25.121Z,13.97
2023-02-11T20:06:53.670Z,13.43
2023-02-11T20:09:22.778Z,13.00
2023-02-11T20:11:52.885Z,13.67
2023-02-11T20:14:21.382Z,14.23
2023-02-11T20:16:50.348Z,14.33
2023-02-11T20:19:21.534Z,14.67
2023-02-11T20:21:55.587Z,14.47
2023-02-11T20:24:25.401Z,14.53
2023-02-11T20:26:56.459Z,13.73
2023-02-11T20:29:26.259Z,14.00
2023-02-11T20:31:55.151Z,14.40
2023-02-11T20:34:25.048Z,11.23
2023-02-11T20:36:54.804Z,13.20
2023-02-11T20:39:24.708Z,12.13
2023-02-11T20:41:56.543Z,12.53
2023-02-11T20:44:25.274Z,13.03
2023-02-11T20:46:54.915Z,13.73
2023-02-11T20:49:25.398Z,13.57
2023-02-11T20:51:54.423Z,13.17
2023-02-11T20:54:24.482Z,13.60
2023-02-11T20:56:56.861Z,14.00
2023-02-11T20:59:26.501Z,13.60
2023-02-11T21:01:57.474Z,13.07
2023-02-11T21:04:29.453Z,12.20
2023-02-11T21:07:00.270Z,12.30
2023-02-11T21:09:32.062Z,14.83
2023-02-11T21:12:02.781Z,13.93
2023-02-11T21:14:31.376Z,14.33
2023-02-11T21:16:59.866Z,14.13
2023-02-11T21:19:28.649Z,13.13
2023-02-11T21:22:00.490Z,13.53
2023-02-11T21:24:30.748Z,13.20
2023-02-11T21:26:59.251Z,12.50
2023-02-11T21:29:29.202Z,13.37
2023-02-11T21:31:57.768Z,13.83
2023-02-11T21:34:26.445Z,13.50
2023-02-11T21:36:54.836Z,13.77
2023-02-11T21:39:23.331Z,13.87
2023-02-11T21:41:52.179Z,12.80
2023-02-11T21:44:20.853Z,11.67
2023-02-11T21:46:50.720Z,12.07
2023-02-11T21:49:20.167Z,11.80
2023-02-11T21:51:48.592Z,12.17
2023-02-11T21:54:18.672Z,11.27
2023-02-11T21:56:47.167Z,11.47
2023-02-11T21:59:16.363Z,12.97
2023-02-11T22:01:47.294Z,12.67
2023-02-11T22:04:17.145Z,12.97
2023-02-11T22:06:45.646Z,13.27
2023-02-11T22:09:14.354Z,12.33
2023-02-11T22:11:42.774Z,13.23
2023-02-11T22:14:11.301Z,12.83
2023-02-11T22:16:39.977Z,12.47
2023-02-11T22:19:08.477Z,11.80
2023-02-11T22:21:38.286Z,11.57
2023-02-11T22:24:07.726Z,12.43
2023-02-11T22:26:36.154Z,11.47
2023-02-11T22:29:04.823Z,11.20
2023-02-11T22:31:35.667Z,11.43
2023-02-11T22:34:05.840Z,11.10
2023-02-11T22:36:38.920Z,11.43
2023-02-11T22:39:10.467Z,11.07
2023-02-11T22:41:39.668Z,10.37
2023-02-11T22:44:08.383Z,11.73
2023-02-11T22:46:37.295Z,12.30
2023-02-11T22:49:06.158Z,11.03
2023-02-11T22:51:35.159Z,11.50
2023-02-11T22:54:08.092Z,10.73
2023-02-11T22:56:37.026Z,10.67
2023-02-11T22:59:11.443Z,11.57
2023-02-11T23:01:39.949Z,10.63
2023-02-11T23:04:11.847Z,10.83
2023-02-11T23:06:40.547Z,11.30
2023-02-11T23:09:13.203Z,11.13
2023-02-11T23:11:42.325Z,10.13
2023-02-11T23:14:12.171Z,10.00
2023-02-11T23:16:41.233Z,9.97
2023-02-11T23:19:12.385Z,10.40
2023-02-11T23:21:41.158Z,9.33
2023-02-11T23:24:15.296Z,10.30
2023-02-11T23:26:45.177Z,10.13
2023-02-11T23:29:13.869Z,10.17
2023-02-11T23:31:45.944Z,10.23
2023-02-11T23:34:17.148Z,11.83
2023-02-11T23:36:45.673Z,10.70
2023-02-11T23:39:17.896Z,10.40
2023-02-11T23:41:47.160Z,11.07
2023-02-11T23:44:16.182Z,10.87
2023-02-11T23:46:44.689Z,9.90
2023-02-11T23:49:15.429Z,9.23
2023-02-11T23:51:43.835Z,8.63
2023-02-11T23:54:15.126Z,9.50
2023-02-11T23:56:45.194Z,10.37
2023-02-11T23:59:13.777Z,11.47
